createdAt,value
2019-02-27T00:00:51.047Z,10.09
2019-02-27T00:03:20.401Z,10.12
2019-02-27T00:05:49.619Z,10.23
2019-02-27T00:08:18.798Z,10.35
2019-02-27T00:10:48.005Z,10.42
2019-02-27T00:13:17.205Z,10.51
2019-02-27T00:15:46.393Z,10.53
2019-02-27T00:18:15.593Z,10.54
2019-02-27T00:20:44.799Z,10.55
2019-02-27T00:23:13.985Z,10.55
2019-02-27T00:25:43.191Z,10.51
2019-02-27T00:28:12.364Z,10.54
2019-02-27T00:30:41.633Z,10.58
2019-02-27T00:33:10.817Z,10.65
2019-02-27T00:35:40.027Z,10.58
2019-02-27T00:38:09.213Z,10.60
2019-02-27T00:40:39.382Z,10.77
2019-02-27T00:43:08.671Z,10.80
2019-02-27T00:45:40.137Z,10.79
2019-02-27T00:48:08.831Z,10.81
2019-02-27T00:50:39.201Z,10.63
2019-02-27T00:53:08.832Z,10.49
2019-02-27T00:55:39.367Z,10.28
2019-02-27T00:58:08.814Z,10.18
2019-02-27T01:00:39.363Z,10.07
2019-02-27T01:03:08.932Z,10.07
2019-02-27T01:05:40.976Z,10.07
2019-02-27T01:08:09.021Z,9.98
2019-02-27T01:10:38.200Z,9.72
2019-02-27T01:13:07.390Z,9.52
2019-02-27T01:15:36.568Z,9.37
2019-02-27T01:18:05.768Z,9.34
2019-02-27T01:20:34.938Z,9.34
2019-02-27T01:23:04.164Z,9.39
2019-02-27T01:25:33.334Z,9.58
2019-02-27T01:28:02.534Z,9.69
2019-02-27T01:30:31.756Z,10.13
2019-02-27T01:33:03.951Z,10.27
2019-02-27T01:35:31.849Z,10.55
2019-02-27T01:38:05.078Z,10.65
2019-02-27T01:40:31.927Z,10.65
2019-02-27T01:43:05.500Z,10.66
2019-02-27T01:45:32.053Z,10.60
2019-02-27T01:48:01.279Z,10.55
2019-02-27T01:50:32.876Z,10.44
2019-02-27T01:53:02.084Z,10.10
2019-02-27T01:55:31.266Z,9.81
2019-02-27T01:58:00.467Z,9.45
2019-02-27T02:00:29.633Z,9.30
2019-02-27T02:02:58.833Z,9.12
2019-02-27T02:05:28.018Z,8.96
2019-02-27T02:07:57.207Z,8.81
2019-02-27T02:10:28.298Z,8.64
2019-02-27T02:13:09.341Z,8.60
2019-02-27T02:16:00.881Z,8.62
2019-02-27T02:18:36.794Z,8.58
2019-02-27T02:21:21.153Z,8.62
2019-02-27T02:23:59.773Z,8.56
2019-02-27T02:26:55.235Z,8.49
2019-02-27T02:29:53.169Z,8.43
2019-02-27T02:32:28.660Z,8.33
2019-02-27T02:35:33.937Z,8.26
2019-02-27T02:38:17.554Z,8.29
2019-02-27T02:41:11.067Z,8.23
2019-02-27T02:43:55.350Z,8.23
2019-02-27T02:46:27.783Z,8.20
2019-02-27T02:49:11.831Z,8.13
2019-02-27T02:51:50.097Z,8.03
2019-02-27T02:54:41.235Z,8.01
2019-02-27T02:57:37.087Z,8.08
2019-02-27T03:00:39.097Z,8.05
2019-02-27T03:03:18.063Z,7.99
2019-02-27T03:06:13.553Z,7.93
2019-02-27T03:09:16.417Z,7.81
2019-02-27T03:12:07.265Z,7.83
2019-02-27T03:14:57.409Z,7.83
2019-02-27T03:17:46.430Z,7.78
2019-02-27T03:20:39.324Z,7.85
2019-02-27T03:23:32.854Z,7.86
2019-02-27T03:26:07.856Z,7.79
2019-02-27T03:29:06.163Z,7.74
2019-02-27T03:31:44.467Z,7.76
2019-02-27T03:34:25.476Z,7.66
2019-02-27T03:37:13.128Z,7.66
2019-02-27T03:39:55.716Z,7.84
2019-02-27T03:42:36.386Z,7.68
2019-02-27T03:45:23.939Z,7.58
2019-02-27T03:47:56.366Z,7.27
2019-02-27T03:50:34.689Z,7.04
2019-02-27T03:53:26.701Z,6.89
2019-02-27T03:56:08.760Z,6.83
2019-02-27T03:58:45.126Z,6.85
2019-02-27T04:01:34.985Z,6.90
2019-02-27T04:04:13.575Z,7.02
2019-02-27T04:07:04.878Z,6.95
2019-02-27T04:09:34.100Z,7.01
2019-02-27T04:12:03.273Z,7.02
2019-02-27T04:14:40.432Z,6.98
2019-02-27T04:17:07.104Z,6.93
2019-02-27T04:19:39.234Z,6.93
2019-02-27T04:22:06.634Z,6.93
2019-02-27T04:24:35.822Z,6.98
2019-02-27T04:27:05.104Z,7.00
2019-02-27T04:29:34.298Z,6.95
2019-02-27T04:32:03.508Z,6.99
2019-02-27T04:34:33.325Z,6.94
2019-02-27T04:37:02.961Z,6.88
2019-02-27T04:39:32.158Z,6.85
2019-02-27T04:42:01.348Z,6.87
2019-02-27T04:44:30.543Z,6.88
2019-02-27T04:46:59.741Z,6.84
2019-02-27T04:49:28.927Z,6.83
2019-02-27T04:51:58.201Z,6.85
2019-02-27T04:54:27.381Z,6.88
2019-02-27T04:56:57.614Z,6.85
2019-02-27T04:59:27.351Z,6.83
2019-02-27T05:01:56.551Z,6.90
2019-02-27T05:04:25.734Z,6.83
2019-02-27T05:06:55.006Z,6.82
2019-02-27T05:09:24.189Z,6.81
2019-02-27T05:11:53.422Z,6.83
2019-02-27T05:14:24.838Z,6.80
2019-02-27T05:16:53.491Z,6.75
2019-02-27T05:19:22.684Z,6.72
2019-02-27T05:21:52.463Z,6.73
2019-02-27T05:24:22.352Z,6.68
2019-02-27T05:26:51.546Z,6.62
2019-02-27T05:29:20.771Z,6.60
2019-02-27T05:31:50.124Z,6.59
2019-02-27T05:34:20.856Z,6.54
2019-02-27T05:36:50.080Z,6.52
2019-02-27T05:39:19.292Z,6.53
2019-02-27T05:41:48.472Z,6.57
2019-02-27T05:44:21.427Z,6.48
2019-02-27T05:46:48.567Z,6.39
2019-02-27T05:49:17.772Z,6.44
2019-02-27T05:51:46.964Z,6.41
2019-02-27T05:54:16.171Z,6.34
2019-02-27T05:56:47.155Z,6.22
2019-02-27T05:59:16.270Z,6.16
2019-02-27T06:01:45.450Z,6.14
2019-02-27T06:04:14.654Z,6.12
2019-02-27T06:06:45.662Z,6.07
2019-02-27T06:09:14.824Z,6.12
2019-02-27T06:11:44.013Z,6.12
2019-02-27T06:14:13.225Z,6.17
2019-02-27T06:16:42.401Z,6.22
2019-02-27T06:19:11.610Z,6.22
2019-02-27T06:21:40.801Z,6.20
2019-02-27T06:24:12.530Z,6.21
2019-02-27T06:26:40.878Z,6.14
2019-02-27T06:29:10.133Z,6.10
2019-02-27T06:31:39.612Z,6.10
2019-02-27T06:34:08.972Z,6.03
2019-02-27T06:36:42.041Z,5.93
2019-02-27T06:39:09.255Z,5.90
2019-02-27T06:41:39.854Z,5.93
2019-02-27T06:44:09.231Z,6.00
2019-02-27T06:46:38.429Z,6.06
2019-02-27T06:49:07.708Z,6.07
2019-02-27T06:51:37.069Z,6.17
2019-02-27T06:54:06.281Z,6.22
2019-02-27T06:56:35.467Z,6.26
2019-02-27T06:59:04.661Z,6.32
2019-02-27T07:01:33.851Z,6.45
2019-02-27T07:04:04.762Z,6.56
2019-02-27T07:06:33.949Z,6.71
2019-02-27T07:09:03.156Z,6.85
2019-02-27T07:11:32.345Z,6.93
2019-02-27T07:14:01.610Z,7.05
2019-02-27T07:16:30.892Z,7.08
2019-02-27T07:19:00.079Z,7.20
2019-02-27T07:21:32.417Z,7.42
2019-02-27T07:24:00.156Z,7.57
2019-02-27T07:26:29.332Z,7.87
2019-02-27T07:28:58.541Z,8.22
2019-02-27T07:31:27.730Z,8.70
2019-02-27T07:33:57.037Z,9.35
2019-02-27T07:36:26.216Z,10.48
2019-02-27T07:38:57.477Z,12.33
2019-02-27T07:41:26.319Z,14.66
2019-02-27T07:43:55.529Z,16.72
2019-02-27T07:46:24.712Z,18.45
2019-02-27T07:48:56.317Z,19.62
2019-02-27T07:51:24.873Z,20.78
2019-02-27T07:53:54.547Z,21.36
2019-02-27T07:56:23.757Z,21.46
2019-02-27T07:58:52.946Z,21.91
2019-02-27T08:01:23.622Z,22.06
2019-02-27T08:03:53.071Z,22.83
2019-02-27T08:06:23.607Z,24.81
2019-02-27T08:08:56.984Z,24.81
2019-02-27T08:11:23.865Z,25.93
2019-02-27T08:13:53.054Z,25.56
2019-02-27T08:16:22.698Z,25.57
2019-02-27T08:18:51.963Z,25.20
2019-02-27T08:21:21.194Z,24.38
2019-02-27T08:23:50.386Z,23.93
2019-02-27T08:26:19.607Z,23.71
2019-02-27T08:28:48.885Z,25.21
2019-02-27T08:31:18.093Z,24.57
2019-02-27T08:33:47.282Z,24.19
2019-02-27T08:36:16.516Z,24.29
2019-02-27T08:38:45.727Z,24.40
2019-02-27T08:41:14.935Z,25.20
2019-02-27T08:43:44.143Z,26.56
2019-02-27T08:46:13.385Z,27.68
2019-02-27T08:48:42.557Z,27.65
2019-02-27T08:51:11.776Z,28.45
2019-02-27T08:53:40.963Z,28.45
2019-02-27T08:56:12.296Z,28.92
2019-02-27T08:58:41.082Z,28.63
2019-02-27T09:01:10.408Z,29.32
2019-02-27T09:03:39.607Z,29.70
2019-02-27T09:06:08.906Z,30.23
2019-02-27T09:08:38.112Z,31.53
2019-02-27T09:11:07.342Z,31.51
2019-02-27T09:13:36.558Z,32.33
2019-02-27T09:16:05.767Z,32.07
2019-02-27T09:18:36.533Z,32.52
2019-02-27T09:21:05.952Z,32.70
2019-02-27T09:23:35.147Z,33.66
2019-02-27T09:26:04.372Z,34.85
2019-02-27T09:28:33.567Z,35.09
2019-02-27T09:31:04.288Z,35.45
2019-02-27T09:33:38.674Z,36.17
2019-02-27T09:36:04.634Z,36.92
2019-02-27T09:38:33.820Z,38.30
2019-02-27T09:41:03.083Z,38.34
2019-02-27T09:43:32.445Z,38.80
2019-02-27T09:46:01.674Z,39.38
2019-02-27T09:48:31.113Z,39.72
2019-02-27T09:51:01.787Z,40.09
2019-02-27T09:53:30.986Z,40.12
2019-02-27T09:56:00.190Z,41.24
2019-02-27T09:58:29.406Z,42.52
2019-02-27T10:01:13.357Z,43.62
2019-02-27T10:03:42.707Z,44.40
2019-02-27T10:06:11.904Z,44.66
2019-02-27T10:08:41.088Z,44.85
2019-02-27T10:11:10.298Z,44.79
2019-02-27T10:13:39.537Z,45.35
2019-02-27T10:16:08.742Z,45.01
2019-02-27T10:18:37.910Z,45.08
2019-02-27T10:21:09.432Z,45.68
2019-02-27T10:23:38.019Z,45.61
2019-02-27T10:26:07.209Z,45.64
2019-02-27T10:28:39.739Z,45.76
2019-02-27T10:31:07.351Z,47.54
2019-02-27T10:33:36.801Z,46.71
2019-02-27T10:36:05.992Z,47.36
2019-02-27T10:38:40.254Z,47.36
2019-02-27T10:41:06.065Z,47.15
2019-02-27T10:43:35.263Z,47.74
2019-02-27T10:46:04.461Z,46.61
2019-02-27T10:48:33.650Z,46.50
2019-02-27T10:51:02.927Z,47.77
2019-02-27T10:53:32.137Z,47.36
2019-02-27T10:56:01.321Z,47.17
2019-02-27T10:58:30.509Z,47.13
2019-02-27T11:01:01.104Z,47.14
2019-02-27T11:03:30.606Z,46.36
2019-02-27T11:05:59.807Z,47.57
2019-02-27T11:08:29.687Z,47.57
2019-02-27T11:10:58.996Z,47.22
2019-02-27T11:13:28.158Z,47.37
2019-02-27T11:15:57.373Z,47.39
2019-02-27T11:18:26.521Z,46.84
2019-02-27T11:20:59.098Z,46.97
2019-02-27T11:23:26.598Z,47.65
2019-02-27T11:25:56.955Z,47.78
2019-02-27T11:28:26.865Z,48.22
2019-02-27T11:30:56.068Z,48.04
2019-02-27T11:33:26.136Z,47.51
2019-02-27T11:35:55.373Z,47.51
2019-02-27T11:38:25.389Z,47.36
2019-02-27T11:40:54.737Z,47.27
2019-02-27T11:43:23.913Z,47.75
2019-02-27T11:45:57.517Z,46.70
2019-02-27T11:48:24.104Z,46.70
2019-02-27T11:50:53.280Z,47.56
2019-02-27T11:53:22.502Z,48.15
2019-02-27T11:55:51.670Z,48.04
2019-02-27T11:58:20.942Z,47.73
2019-02-27T12:00:50.112Z,48.56
2019-02-27T12:03:19.319Z,48.23
2019-02-27T12:05:48.574Z,48.15
2019-02-27T12:08:17.778Z,48.19
2019-02-27T12:10:46.955Z,49.05
2019-02-27T12:13:16.150Z,49.52
2019-02-27T12:15:45.343Z,49.13
2019-02-27T12:18:14.545Z,48.09
2019-02-27T12:20:43.726Z,47.63
2019-02-27T12:23:12.960Z,47.61
2019-02-27T12:25:42.147Z,47.57
2019-02-27T12:28:11.349Z,46.92
2019-02-27T12:30:40.529Z,46.92
2019-02-27T12:33:09.739Z,44.94
2019-02-27T12:35:38.934Z,44.59
2019-02-27T12:38:08.569Z,44.78
2019-02-27T12:40:37.782Z,42.76
2019-02-27T12:43:06.971Z,43.30
2019-02-27T12:45:36.149Z,41.34
2019-02-27T12:48:05.353Z,39.92
2019-02-27T12:50:34.528Z,38.80
2019-02-27T12:53:03.729Z,37.13
2019-02-27T12:55:35.507Z,35.67
2019-02-27T12:58:03.802Z,34.24
2019-02-27T13:00:34.413Z,33.79
2019-02-27T13:03:08.452Z,32.12
2019-02-27T13:05:34.511Z,31.71
2019-02-27T13:08:03.748Z,30.96
2019-02-27T13:10:34.243Z,30.52
2019-02-27T13:13:03.633Z,30.37
2019-02-27T13:15:32.846Z,29.84
2019-02-27T13:18:02.066Z,29.30
2019-02-27T13:20:32.710Z,28.03
2019-02-27T13:23:05.186Z,27.70
2019-02-27T13:25:32.800Z,27.52
2019-02-27T13:28:02.015Z,27.65
2019-02-27T13:30:31.227Z,27.99
2019-02-27T13:33:01.277Z,28.17
2019-02-27T13:35:31.245Z,27.89
2019-02-27T13:38:00.425Z,27.65
2019-02-27T13:40:35.363Z,27.75
2019-02-27T13:43:01.711Z,27.48
2019-02-27T13:45:32.117Z,27.24
2019-02-27T13:48:04.843Z,27.20
2019-02-27T13:50:32.227Z,27.21
2019-02-27T13:53:01.421Z,27.16
2019-02-27T13:55:30.631Z,27.20
2019-02-27T13:58:03.393Z,27.13
2019-02-27T14:00:31.963Z,27.13
2019-02-27T14:03:01.146Z,26.95
2019-02-27T14:05:34.902Z,26.78
2019-02-27T14:08:01.346Z,26.36
2019-02-27T14:10:34.181Z,26.42
2019-02-27T14:13:03.367Z,26.38
2019-02-27T14:15:32.577Z,26.45
2019-02-27T14:18:01.814Z,26.49
2019-02-27T14:20:31.155Z,26.45
2019-02-27T14:23:00.421Z,26.31
2019-02-27T14:25:32.911Z,26.12
2019-02-27T14:28:01.965Z,25.99
2019-02-27T14:30:48.927Z,26.00
2019-02-27T14:33:19.328Z,25.92
2019-02-27T14:35:49.033Z,25.85
2019-02-27T14:38:18.224Z,25.80
2019-02-27T14:40:47.449Z,25.73
2019-02-27T14:43:16.639Z,25.68
2019-02-27T14:45:45.849Z,25.69
2019-02-27T14:48:15.057Z,25.58
2019-02-27T14:50:44.256Z,25.41
2019-02-27T14:53:16.597Z,25.24
2019-02-27T14:55:44.402Z,24.88
2019-02-27T14:58:13.626Z,24.86
2019-02-27T15:00:43.675Z,24.86
2019-02-27T15:03:12.931Z,24.91
2019-02-27T15:05:44.725Z,25.04
2019-02-27T15:08:13.029Z,24.96
2019-02-27T15:10:42.234Z,24.94
2019-02-27T15:13:11.416Z,24.82
2019-02-27T15:15:43.190Z,24.71
2019-02-27T15:18:11.521Z,24.67
2019-02-27T15:20:41.263Z,24.59
2019-02-27T15:23:10.436Z,24.62
2019-02-27T15:25:43.202Z,24.55
2019-02-27T15:28:10.532Z,24.52
2019-02-27T15:30:39.739Z,24.47
2019-02-27T15:33:08.924Z,24.42
2019-02-27T15:35:38.316Z,24.27
2019-02-27T15:38:11.433Z,24.15
2019-02-27T15:40:38.501Z,24.07
2019-02-27T15:43:11.262Z,23.97
2019-02-27T15:45:47.513Z,23.82
2019-02-27T15:48:09.479Z,23.71
2019-02-27T15:50:38.690Z,23.74
2019-02-27T15:53:07.894Z,23.65
2019-02-27T15:55:37.937Z,23.51
2019-02-27T15:58:07.134Z,23.46
2019-02-27T16:00:36.353Z,23.33
2019-02-27T16:03:10.650Z,23.27
2019-02-27T16:05:36.487Z,23.10
2019-02-27T16:08:05.770Z,22.83
2019-02-27T16:10:34.942Z,22.72
2019-02-27T16:13:04.148Z,22.45
2019-02-27T16:15:33.329Z,22.24
2019-02-27T16:18:04.759Z,22.03
2019-02-27T16:20:33.422Z,21.87
2019-02-27T16:23:05.089Z,21.68
2019-02-27T16:25:33.530Z,21.55
2019-02-27T16:28:02.824Z,21.46
2019-02-27T16:30:33.357Z,21.31
2019-02-27T16:33:02.577Z,21.19
2019-02-27T16:35:31.762Z,21.06
2019-02-27T16:38:01.040Z,20.96
2019-02-27T16:40:30.795Z,20.94
2019-02-27T16:42:59.997Z,20.86
2019-02-27T16:45:37.344Z,20.62
2019-02-27T16:48:06.804Z,20.47
2019-02-27T16:50:35.994Z,20.30
2019-02-27T16:53:05.204Z,20.23
2019-02-27T16:55:36.960Z,20.05
2019-02-27T16:58:05.308Z,19.96
2019-02-27T17:00:37.084Z,19.80
2019-02-27T17:03:06.289Z,19.63
2019-02-27T17:05:35.485Z,19.55
2019-02-27T17:08:04.706Z,19.43
2019-02-27T17:10:35.310Z,19.26
2019-02-27T17:13:04.595Z,19.13
2019-02-27T17:15:35.987Z,18.89
2019-02-27T17:18:04.709Z,18.66
2019-02-27T17:20:36.573Z,18.50
2019-02-27T17:23:10.473Z,18.45
2019-02-27T17:25:36.681Z,18.29
2019-02-27T17:28:05.891Z,18.10
2019-02-27T17:30:37.785Z,17.95
2019-02-27T17:33:07.298Z,17.91
2019-02-27T17:35:36.497Z,17.93
2019-02-27T17:38:05.695Z,17.83
2019-02-27T17:40:37.508Z,17.75
2019-02-27T17:43:06.842Z,17.67
2019-02-27T17:45:36.085Z,17.55
2019-02-27T17:48:05.298Z,17.44
2019-02-27T17:50:34.582Z,17.32
2019-02-27T17:53:03.795Z,17.19
2019-02-27T17:55:32.992Z,17.12
2019-02-27T17:58:02.193Z,17.02
2019-02-27T18:00:42.376Z,16.90
2019-02-27T18:03:11.588Z,16.82
2019-02-27T18:05:40.825Z,16.73
2019-02-27T18:08:10.033Z,16.69
2019-02-27T18:10:39.219Z,16.66
2019-02-27T18:13:08.458Z,16.58
2019-02-27T18:15:37.722Z,16.52
2019-02-27T18:18:09.113Z,16.42
2019-02-27T18:20:37.844Z,16.23
2019-02-27T18:23:07.051Z,16.02
2019-02-27T18:25:41.034Z,15.85
2019-02-27T18:28:07.160Z,15.76
2019-02-27T18:30:36.343Z,15.68
2019-02-27T18:33:05.557Z,15.59
2019-02-27T18:35:34.743Z,15.49
2019-02-27T18:38:03.962Z,15.38
2019-02-27T18:40:33.151Z,15.29
2019-02-27T18:43:02.357Z,15.18
2019-02-27T18:45:31.579Z,15.09
2019-02-27T18:48:00.777Z,15.04
2019-02-27T18:50:29.966Z,15.00
2019-02-27T18:52:59.188Z,14.94
2019-02-27T18:55:30.657Z,14.95
2019-02-27T18:57:59.278Z,14.92
2019-02-27T19:00:29.402Z,14.90
2019-02-27T19:03:10.618Z,14.91
2019-02-27T19:05:42.024Z,14.86
2019-02-27T19:08:10.720Z,14.90
2019-02-27T19:10:42.451Z,14.88
2019-02-27T19:13:10.962Z,14.91
2019-02-27T19:15:45.419Z,14.87
2019-02-27T19:18:11.120Z,14.81
2019-02-27T19:20:45.628Z,14.78
2019-02-27T19:23:17.731Z,14.75
2019-02-27T19:25:45.709Z,14.73
2019-02-27T19:28:14.970Z,14.60
2019-02-27T19:30:44.157Z,14.42
2019-02-27T19:33:13.360Z,14.23
2019-02-27T19:35:42.558Z,13.98
2019-02-27T19:38:12.910Z,13.82
2019-02-27T19:40:42.639Z,13.82
2019-02-27T19:43:11.857Z,13.88
2019-02-27T19:45:42.297Z,13.88
2019-02-27T19:48:11.860Z,13.98
2019-02-27T19:50:45.248Z,13.96
2019-02-27T19:53:11.969Z,14.03
2019-02-27T19:55:41.248Z,14.04
2019-02-27T19:58:10.455Z,14.04
2019-02-27T20:00:48.029Z,13.93
2019-02-27T20:03:10.592Z,13.84
2019-02-27T20:05:39.780Z,13.81
2019-02-27T20:08:10.914Z,13.74
2019-02-27T20:10:40.255Z,13.67
2019-02-27T20:13:09.458Z,13.65
2019-02-27T20:15:38.646Z,13.62
2019-02-27T20:18:08.864Z,13.62
2019-02-27T20:20:40.946Z,13.57
2019-02-27T20:23:09.298Z,13.46
2019-02-27T20:25:43.168Z,13.36
2019-02-27T20:28:09.398Z,13.26
2019-02-27T20:30:38.598Z,13.16
2019-02-27T20:33:07.833Z,13.07
2019-02-27T20:35:37.030Z,13.02
2019-02-27T20:38:06.248Z,12.96
2019-02-27T20:40:35.436Z,12.93
2019-02-27T20:43:04.644Z,12.85
2019-02-27T20:45:33.824Z,12.86
2019-02-27T20:48:03.121Z,12.71
2019-02-27T20:50:55.176Z,12.59
2019-02-27T20:53:24.619Z,12.44
2019-02-27T20:55:53.807Z,12.35
2019-02-27T20:58:23.059Z,12.26
2019-02-27T21:00:52.523Z,12.10
2019-02-27T21:03:26.683Z,12.00
2019-02-27T21:05:52.803Z,11.94
2019-02-27T21:08:22.082Z,11.93
2019-02-27T21:10:54.873Z,11.85
2019-02-27T21:13:22.158Z,11.79
2019-02-27T21:15:51.350Z,11.76
2019-02-27T21:18:20.588Z,11.64
2019-02-27T21:20:50.912Z,11.49
2019-02-27T21:23:20.179Z,11.53
2019-02-27T21:25:49.926Z,11.45
2019-02-27T21:28:21.316Z,11.51
2019-02-27T21:30:52.445Z,11.49
2019-02-27T21:33:21.090Z,11.48
2019-02-27T21:35:50.282Z,11.61
2019-02-27T21:38:19.486Z,11.67
2019-02-27T21:40:48.677Z,11.70
2019-02-27T21:43:17.894Z,11.67
2019-02-27T21:45:47.093Z,11.66
2019-02-27T21:48:16.341Z,11.51
2019-02-27T21:50:45.507Z,11.31
2019-02-27T21:53:14.729Z,11.18
2019-02-27T21:55:44.685Z,11.10
2019-02-27T21:58:20.382Z,11.06
2019-02-27T22:00:48.269Z,11.08
2019-02-27T22:03:16.427Z,11.00
2019-02-27T22:05:46.987Z,10.87
2019-02-27T22:08:16.204Z,10.73
2019-02-27T22:10:45.406Z,10.76
2019-02-27T22:13:14.631Z,10.57
2019-02-27T22:15:43.825Z,10.45
2019-02-27T22:18:13.026Z,10.43
2019-02-27T22:20:42.223Z,10.40
2019-02-27T22:23:12.618Z,10.40
2019-02-27T22:25:42.100Z,10.39
2019-02-27T22:28:11.310Z,10.45
2019-02-27T22:30:40.493Z,10.44
2019-02-27T22:33:09.688Z,10.39
2019-02-27T22:35:38.937Z,10.33
2019-02-27T22:38:08.121Z,10.34
2019-02-27T22:40:38.285Z,10.35
2019-02-27T22:43:08.305Z,10.33
2019-02-27T22:45:40.504Z,10.32
2019-02-27T22:48:08.401Z,10.18
2019-02-27T22:50:38.371Z,10.17
2019-02-27T22:53:08.513Z,10.18
2019-02-27T22:55:37.730Z,10.17
2019-02-27T22:58:06.936Z,10.18
2019-02-27T23:00:53.063Z,10.30
2019-02-27T23:03:31.752Z,10.20
2019-02-27T23:06:00.948Z,10.17
2019-02-27T23:08:30.135Z,10.20
2019-02-27T23:11:02.910Z,10.25
2019-02-27T23:13:30.364Z,10.32
2019-02-27T23:15:59.585Z,10.31
2019-02-27T23:18:28.770Z,10.24
2019-02-27T23:20:58.004Z,10.16
2019-02-27T23:23:27.196Z,10.07
2019-02-27T23:25:56.408Z,9.98
2019-02-27T23:28:25.602Z,9.89
2019-02-27T23:30:54.806Z,9.80
2019-02-27T23:33:24.732Z,9.73
2019-02-27T23:35:54.082Z,9.62
2019-02-27T23:38:23.398Z,9.57
2019-02-27T23:40:52.603Z,9.53
2019-02-27T23:43:21.852Z,9.43
2019-02-27T23:45:51.063Z,9.34
2019-02-27T23:48:20.260Z,9.27
2019-02-27T23:50:49.460Z,9.19
2019-02-27T23:53:18.658Z,9.18
2019-02-27T23:55:47.865Z,9.09
2019-02-27T23:58:17.046Z,8.98
